Joint Base Pearl Harbor Hickam, HI (96853)

2:45 AM HST on August 29, 2015 (GMT -1000)
Aiea Heights | | Change Station
CLOSE
Current Station
Personal Weather Station
Location: Aiea, HI
Elevation: 676 ft
Nearby Weather Stations

Elev 676 ft 21.39 °N, 157.91 °W | Updated 9 minutes ago

Scattered Clouds
Scattered Clouds
74.8 °F
Feels Like 74 °F
N
0.0
Wind Variable Wind from NNE

Today
High -- | Low -- °F
--% Chance of Precip.
Yesterday
High -- | Low -- °F
Precip. -- in
6:14 AM 6:50 PM
Full, 100% visible
Pressure 29.88 in
Visibility 10.0 miles
Clouds Few 2900 ft
Scattered Clouds 5500 ft
Heat Index 74 °F
Dew Point 71 °F
Humidity 88%
Rainfall 0.00 in
Snow Depth Not available.
UV 0 out of 12
Pollen Not available.
Air Quality Not available.
Flu Activity Not available.
METAR PHNL 291153Z 06007KT 10SM FEW029 SCT055 27/22 A2988 RMK AO2 SLP119 T02720217 10283 20267 58010
Pressure 29.88 in
Visibility 10.0 miles
Clouds Few 2900 ft
Scattered Clouds 5500 ft
Heat Index 74 °F
Dew Point 71 °F
Humidity 88%
Rainfall 0.00 in
Snow Depth Not available.
UV 0 out of 12
Pollen Not available.
Air Quality Not available.
Flu Activity Not available.
METAR PHNL 291153Z 06007KT 10SM FEW029 SCT055 27/22 A2988 RMK AO2 SLP119 T02720217 10283 20267 58010
The busy hurricane season continues as Hurricane Ignacio may threaten The Big Island Monday. Ignacio is expected to strengthen into a Category 2 hurricane later today, before possibly weakening to a Category 1 storm Monday. The most likely scenario is that storm will pass to the north of Hawaii, there is enough difference is guidance to suggest that residents should prepare for the storm.

10-Day Weather Forecast

×

Almanac

Astronomy

Aug. 29, 2015 Rise Set
Actual Time
Civil Twilight
Nautical Twilight
Astronomical Twilight
Moon
Length of Visible Light
Length of Day
Tomorrow will be .
, % of the Moon is Illuminated

Today's Extremes

State Highs State Lows

Community

WunderPhotos

Upload Photos

1,850,677 photos uploaded!

WunderBlogs® & News

Nearby

Air Quality

  Air Quality AQ Index Pollutant
Not available.

Snow Depth

Station Depth Elevation

Earthquake Activity

City Distance Mag. Time & Date
Minimum magnitude displayed is 2.5.

Coastal Water Temperatures

Place Temperature

Stations

Nearby Weather Stations

Station Location Temp. Windchill Dew Point Humidity Wind Precip. Elev Updated Type